sensor_id;sensor_type;location;lat;lon;timestamp;P1;durP1;ratioP1;P2;durP2;ratioP2
7340;SDS011;6870;50.944;6.932;2023-03-31T00:01:31;2.30;;;1.40;;
7340;SDS011;6870;50.944;6.932;2023-03-31T00:04:02;3.10;;;1.50;;
7340;SDS011;6870;50.944;6.932;2023-03-31T00:06:31;4.43;;;1.60;;
7340;SDS011;6870;50.944;6.932;2023-03-31T00:09:05;2.30;;;1.53;;
7340;SDS011;6870;50.944;6.932;2023-03-31T00:11:37;2.90;;;1.67;;
7340;SDS011;6870;50.944;6.932;2023-03-31T00:14:06;2.33;;;1.83;;
7340;SDS011;6870;50.944;6.932;2023-03-31T00:16:35;2.20;;;1.40;;
7340;SDS011;6870;50.944;6.932;2023-03-31T00:19:05;3.03;;;1.87;;
7340;SDS011;6870;50.944;6.932;2023-03-31T00:21:35;3.27;;;1.80;;
7340;SDS011;6870;50.944;6.932;2023-03-31T00:24:05;2.07;;;1.10;;
7340;SDS011;6870;50.944;6.932;2023-03-31T00:26:50;3.60;;;2.00;;
7340;SDS011;6870;50.944;6.932;2023-03-31T00:29:18;3.10;;;1.87;;
7340;SDS011;6870;50.944;6.932;2023-03-31T00:31:46;2.93;;;1.40;;
7340;SDS011;6870;50.944;6.932;2023-03-31T00:34:14;3.10;;;1.50;;
7340;SDS011;6870;50.944;6.932;2023-03-31T00:36:43;3.27;;;1.50;;
7340;SDS011;6870;50.944;6.932;2023-03-31T00:39:14;3.10;;;1.83;;
7340;SDS011;6870;50.944;6.932;2023-03-31T00:41:45;2.90;;;2.03;;
7340;SDS011;6870;50.944;6.932;2023-03-31T00:44:14;2.37;;;1.30;;
7340;SDS011;6870;50.944;6.932;2023-03-31T00:46:49;2.00;;;1.20;;
7340;SDS011;6870;50.944;6.932;2023-03-31T00:49:22;2.77;;;1.60;;
7340;SDS011;6870;50.944;6.932;2023-03-31T00:51:56;1.93;;;1.37;;
7340;SDS011;6870;50.944;6.932;2023-03-31T00:54:32;3.37;;;1.80;;
7340;SDS011;6870;50.944;6.932;2023-03-31T00:57:02;3.00;;;1.30;;
7340;SDS011;6870;50.944;6.932;2023-03-31T00:59:33;3.13;;;1.63;;
7340;SDS011;6870;50.944;6.932;2023-03-31T01:02:05;2.20;;;1.50;;
7340;SDS011;6870;50.944;6.932;2023-03-31T01:04:35;3.27;;;1.33;;
7340;SDS011;6870;50.944;6.932;2023-03-31T01:07:12;2.13;;;1.30;;
7340;SDS011;6870;50.944;6.932;2023-03-31T01:09:46;1.63;;;1.10;;
7340;SDS011;6870;50.944;6.932;2023-03-31T01:12:15;1.90;;;1.50;;
7340;SDS011;6870;50.944;6.932;2023-03-31T01:14:45;2.57;;;1.43;;
7340;SDS011;6870;50.944;6.932;2023-03-31T01:17:13;2.90;;;1.67;;
7340;SDS011;6870;50.944;6.932;2023-03-31T01:19:49;1.90;;;1.10;;
7340;SDS011;6870;50.944;6.932;2023-03-31T01:22:32;3.57;;;1.90;;
7340;SDS011;6870;50.944;6.932;2023-03-31T01:25:44;2.57;;;1.63;;
7340;SDS011;6870;50.944;6.932;2023-03-31T01:28:36;2.23;;;1.57;;
7340;SDS011;6870;50.944;6.932;2023-03-31T01:37:50;3.17;;;1.80;;
7340;SDS011;6870;50.944;6.932;2023-03-31T01:41:02;1.77;;;1.00;;
7340;SDS011;6870;50.944;6.932;2023-03-31T01:43:52;1.67;;;1.30;;
7340;SDS011;6870;50.944;6.932;2023-03-31T01:46:31;1.87;;;1.27;;
7340;SDS011;6870;50.944;6.932;2023-03-31T01:49:06;2.07;;;1.17;;
7340;SDS011;6870;50.944;6.932;2023-03-31T01:51:43;2.13;;;1.53;;
7340;SDS011;6870;50.944;6.932;2023-03-31T01:54:20;1.90;;;1.50;;
7340;SDS011;6870;50.944;6.932;2023-03-31T01:56:56;2.67;;;1.53;;
7340;SDS011;6870;50.944;6.932;2023-03-31T01:59:28;1.83;;;1.30;;
7340;SDS011;6870;50.944;6.932;2023-03-31T02:02:05;2.53;;;1.33;;
7340;SDS011;6870;50.944;6.932;2023-03-31T02:04:37;2.40;;;1.40;;
7340;SDS011;6870;50.944;6.932;2023-03-31T02:07:11;2.73;;;1.57;;
7340;SDS011;6870;50.944;6.932;2023-03-31T02:09:43;2.00;;;1.33;;
7340;SDS011;6870;50.944;6.932;2023-03-31T02:12:16;2.20;;;1.30;;
7340;SDS011;6870;50.944;6.932;2023-03-31T02:14:47;2.40;;;1.20;;
7340;SDS011;6870;50.944;6.932;2023-03-31T02:17:20;3.30;;;1.30;;
7340;SDS011;6870;50.944;6.932;2023-03-31T02:19:55;2.27;;;1.37;;
7340;SDS011;6870;50.944;6.932;2023-03-31T02:22:26;2.50;;;1.70;;
7340;SDS011;6870;50.944;6.932;2023-03-31T02:24:59;2.23;;;1.20;;
7340;SDS011;6870;50.944;6.932;2023-03-31T02:27:31;1.90;;;1.20;;
7340;SDS011;6870;50.944;6.932;2023-03-31T02:30:02;2.73;;;1.53;;
7340;SDS011;6870;50.944;6.932;2023-03-31T02:32:34;2.37;;;1.70;;
7340;SDS011;6870;50.944;6.932;2023-03-31T02:35:06;1.87;;;1.20;;
7340;SDS011;6870;50.944;6.932;2023-03-31T02:37:38;2.43;;;1.20;;
7340;SDS011;6870;50.944;6.932;2023-03-31T02:40:08;2.90;;;1.27;;
7340;SDS011;6870;50.944;6.932;2023-03-31T02:42:40;2.00;;;1.20;;
7340;SDS011;6870;50.944;6.932;2023-03-31T02:48:08;1.60;;;1.27;;
7340;SDS011;6870;50.944;6.932;2023-03-31T02:53:41;1.70;;;1.07;;
7340;SDS011;6870;50.944;6.932;2023-03-31T02:56:30;2.27;;;1.40;;
7340;SDS011;6870;50.944;6.932;2023-03-31T02:59:25;2.03;;;1.10;;
7340;SDS011;6870;50.944;6.932;2023-03-31T03:02:07;1.83;;;1.20;;
7340;SDS011;6870;50.944;6.932;2023-03-31T03:04:56;2.87;;;1.30;;
7340;SDS011;6870;50.944;6.932;2023-03-31T03:07:45;1.90;;;1.50;;
7340;SDS011;6870;50.944;6.932;2023-03-31T03:10:25;3.20;;;1.67;;
7340;SDS011;6870;50.944;6.932;2023-03-31T03:13:00;2.23;;;1.20;;
7340;SDS011;6870;50.944;6.932;2023-03-31T03:15:39;2.20;;;1.27;;
7340;SDS011;6870;50.944;6.932;2023-03-31T03:18:12;2.23;;;1.67;;
7340;SDS011;6870;50.944;6.932;2023-03-31T03:20:41;2.30;;;1.37;;
7340;SDS011;6870;50.944;6.932;2023-03-31T03:23:13;3.07;;;1.37;;
7340;SDS011;6870;50.944;6.932;2023-03-31T03:25:42;1.90;;;1.10;;
7340;SDS011;6870;50.944;6.932;2023-03-31T03:28:11;2.50;;;1.37;;
7340;SDS011;6870;50.944;6.932;2023-03-31T03:30:40;1.73;;;1.17;;
7340;SDS011;6870;50.944;6.932;2023-03-31T03:33:08;2.90;;;1.30;;
7340;SDS011;6870;50.944;6.932;2023-03-31T03:35:42;2.00;;;1.60;;
7340;SDS011;6870;50.944;6.932;2023-03-31T03:38:10;1.90;;;1.13;;
7340;SDS011;6870;50.944;6.932;2023-03-31T03:40:38;2.63;;;1.40;;
7340;SDS011;6870;50.944;6.932;2023-03-31T03:43:06;1.77;;;1.03;;
7340;SDS011;6870;50.944;6.932;2023-03-31T03:45:35;1.80;;;1.20;;
7340;SDS011;6870;50.944;6.932;2023-03-31T03:48:04;2.43;;;1.40;;
7340;SDS011;6870;50.944;6.932;2023-03-31T03:50:34;1.43;;;1.17;;
7340;SDS011;6870;50.944;6.932;2023-03-31T03:53:04;1.93;;;1.50;;
7340;SDS011;6870;50.944;6.932;2023-03-31T03:55:32;2.40;;;1.17;;
7340;SDS011;6870;50.944;6.932;2023-03-31T03:58:00;2.80;;;1.47;;
7340;SDS011;6870;50.944;6.932;2023-03-31T04:00:28;1.70;;;1.30;;
7340;SDS011;6870;50.944;6.932;2023-03-31T04:02:57;2.20;;;1.10;;
7340;SDS011;6870;50.944;6.932;2023-03-31T04:05:26;1.80;;;1.10;;
7340;SDS011;6870;50.944;6.932;2023-03-31T04:07:54;2.03;;;0.93;;
7340;SDS011;6870;50.944;6.932;2023-03-31T04:10:22;2.20;;;1.27;;
7340;SDS011;6870;50.944;6.932;2023-03-31T04:12:50;2.17;;;1.27;;
7340;SDS011;6870;50.944;6.932;2023-03-31T04:15:18;1.70;;;1.30;;
7340;SDS011;6870;50.944;6.932;2023-03-31T04:17:46;3.10;;;1.30;;
7340;SDS011;6870;50.944;6.932;2023-03-31T04:20:16;1.63;;;1.13;;
7340;SDS011;6870;50.944;6.932;2023-03-31T04:22:46;2.60;;;0.97;;
7340;SDS011;6870;50.944;6.932;2023-03-31T04:25:15;2.00;;;1.10;;
7340;SDS011;6870;50.944;6.932;2023-03-31T04:27:44;1.50;;;1.00;;
7340;SDS011;6870;50.944;6.932;2023-03-31T04:30:16;3.53;;;1.20;;
7340;SDS011;6870;50.944;6.932;2023-03-31T04:32:49;1.90;;;1.17;;
7340;SDS011;6870;50.944;6.932;2023-03-31T04:35:18;1.70;;;1.00;;
7340;SDS011;6870;50.944;6.932;2023-03-31T04:37:48;1.73;;;0.87;;
7340;SDS011;6870;50.944;6.932;2023-03-31T04:40:23;1.40;;;1.00;;
7340;SDS011;6870;50.944;6.932;2023-03-31T04:42:52;1.67;;;1.20;;
7340;SDS011;6870;50.944;6.932;2023-03-31T04:45:20;2.20;;;1.13;;
7340;SDS011;6870;50.944;6.932;2023-03-31T04:47:48;1.90;;;1.00;;
7340;SDS011;6870;50.944;6.932;2023-03-31T04:50:16;1.30;;;0.80;;
7340;SDS011;6870;50.944;6.932;2023-03-31T04:52:44;1.57;;;0.87;;
7340;SDS011;6870;50.944;6.932;2023-03-31T04:55:13;1.80;;;0.90;;
7340;SDS011;6870;50.944;6.932;2023-03-31T04:57:41;1.83;;;1.00;;
7340;SDS011;6870;50.944;6.932;2023-03-31T05:00:10;2.10;;;0.90;;
7340;SDS011;6870;50.944;6.932;2023-03-31T05:02:39;2.00;;;1.03;;
7340;SDS011;6870;50.944;6.932;2023-03-31T05:05:08;2.17;;;0.93;;
7340;SDS011;6870;50.944;6.932;2023-03-31T05:07:37;2.30;;;1.10;;
7340;SDS011;6870;50.944;6.932;2023-03-31T05:10:06;2.10;;;0.97;;
7340;SDS011;6870;50.944;6.932;2023-03-31T05:12:36;1.70;;;1.00;;
7340;SDS011;6870;50.944;6.932;2023-03-31T05:15:05;2.80;;;1.23;;
7340;SDS011;6870;50.944;6.932;2023-03-31T05:17:34;1.80;;;1.30;;
7340;SDS011;6870;50.944;6.932;2023-03-31T05:20:05;1.73;;;1.33;;
7340;SDS011;6870;50.944;6.932;2023-03-31T05:22:35;1.70;;;1.00;;
7340;SDS011;6870;50.944;6.932;2023-03-31T05:25:05;2.40;;;1.33;;
7340;SDS011;6870;50.944;6.932;2023-03-31T05:27:38;1.43;;;0.87;;
7340;SDS011;6870;50.944;6.932;2023-03-31T05:30:06;1.90;;;1.00;;
7340;SDS011;6870;50.944;6.932;2023-03-31T05:32:35;1.60;;;0.90;;
7340;SDS011;6870;50.944;6.932;2023-03-31T05:35:04;1.70;;;0.97;;
7340;SDS011;6870;50.944;6.932;2023-03-31T05:37:33;1.87;;;1.20;;
7340;SDS011;6870;50.944;6.932;2023-03-31T05:40:01;1.50;;;1.00;;
7340;SDS011;6870;50.944;6.932;2023-03-31T05:42:31;1.90;;;0.93;;
7340;SDS011;6870;50.944;6.932;2023-03-31T05:45:00;1.90;;;1.00;;
7340;SDS011;6870;50.944;6.932;2023-03-31T05:47:28;1.47;;;0.73;;
7340;SDS011;6870;50.944;6.932;2023-03-31T05:49:56;1.50;;;1.03;;
7340;SDS011;6870;50.944;6.932;2023-03-31T05:52:24;3.67;;;1.40;;
7340;SDS011;6870;50.944;6.932;2023-03-31T05:54:52;1.77;;;1.10;;
7340;SDS011;6870;50.944;6.932;2023-03-31T05:57:20;5.40;;;1.13;;
7340;SDS011;6870;50.944;6.932;2023-03-31T05:59:48;1.30;;;0.90;;
7340;SDS011;6870;50.944;6.932;2023-03-31T06:02:18;2.17;;;1.20;;
7340;SDS011;6870;50.944;6.932;2023-03-31T06:04:46;4.00;;;1.37;;
7340;SDS011;6870;50.944;6.932;2023-03-31T06:07:14;1.87;;;1.10;;
7340;SDS011;6870;50.944;6.932;2023-03-31T06:09:43;2.73;;;1.00;;
7340;SDS011;6870;50.944;6.932;2023-03-31T06:12:12;2.27;;;1.00;;
7340;SDS011;6870;50.944;6.932;2023-03-31T06:14:41;3.33;;;1.10;;
7340;SDS011;6870;50.944;6.932;2023-03-31T06:17:09;1.70;;;1.10;;
7340;SDS011;6870;50.944;6.932;2023-03-31T06:19:38;2.50;;;1.13;;
7340;SDS011;6870;50.944;6.932;2023-03-31T06:22:06;2.43;;;1.20;;
7340;SDS011;6870;50.944;6.932;2023-03-31T06:24:34;3.43;;;1.60;;
7340;SDS011;6870;50.944;6.932;2023-03-31T06:27:02;3.00;;;1.37;;
7340;SDS011;6870;50.944;6.932;2023-03-31T06:29:32;3.67;;;1.33;;
7340;SDS011;6870;50.944;6.932;2023-03-31T06:32:00;2.17;;;1.00;;
7340;SDS011;6870;50.944;6.932;2023-03-31T06:34:30;2.87;;;1.50;;
7340;SDS011;6870;50.944;6.932;2023-03-31T06:36:59;5.07;;;1.20;;
7340;SDS011;6870;50.944;6.932;2023-03-31T06:39:27;3.53;;;1.10;;
7340;SDS011;6870;50.944;6.932;2023-03-31T06:41:55;7.80;;;1.33;;
7340;SDS011;6870;50.944;6.932;2023-03-31T06:44:23;4.93;;;1.30;;
7340;SDS011;6870;50.944;6.932;2023-03-31T06:46:51;3.80;;;1.20;;
7340;SDS011;6870;50.944;6.932;2023-03-31T06:49:20;3.10;;;1.53;;
7340;SDS011;6870;50.944;6.932;2023-03-31T06:51:48;2.57;;;1.10;;
7340;SDS011;6870;50.944;6.932;2023-03-31T06:54:17;3.77;;;1.87;;
7340;SDS011;6870;50.944;6.932;2023-03-31T06:56:46;2.97;;;1.70;;
7340;SDS011;6870;50.944;6.932;2023-03-31T06:59:14;3.20;;;1.70;;
7340;SDS011;6870;50.944;6.932;2023-03-31T07:01:42;2.77;;;1.30;;
7340;SDS011;6870;50.944;6.932;2023-03-31T07:04:11;4.57;;;1.67;;
7340;SDS011;6870;50.944;6.932;2023-03-31T07:06:39;5.73;;;1.80;;
7340;SDS011;6870;50.944;6.932;2023-03-31T07:09:07;3.17;;;1.40;;
7340;SDS011;6870;50.944;6.932;2023-03-31T07:11:36;2.93;;;2.00;;
7340;SDS011;6870;50.944;6.932;2023-03-31T07:14:04;3.00;;;1.63;;
7340;SDS011;6870;50.944;6.932;2023-03-31T07:16:32;2.60;;;1.67;;
7340;SDS011;6870;50.944;6.932;2023-03-31T07:19:01;3.63;;;1.27;;
7340;SDS011;6870;50.944;6.932;2023-03-31T07:21:31;4.57;;;1.50;;
7340;SDS011;6870;50.944;6.932;2023-03-31T07:23:59;2.77;;;1.37;;
7340;SDS011;6870;50.944;6.932;2023-03-31T07:26:27;8.33;;;2.00;;
7340;SDS011;6870;50.944;6.932;2023-03-31T07:28:56;4.37;;;1.47;;
7340;SDS011;6870;50.944;6.932;2023-03-31T07:31:24;7.90;;;2.07;;
7340;SDS011;6870;50.944;6.932;2023-03-31T07:33:52;2.60;;;1.70;;
7340;SDS011;6870;50.944;6.932;2023-03-31T07:36:21;4.73;;;1.60;;
7340;SDS011;6870;50.944;6.932;2023-03-31T07:38:49;3.27;;;1.40;;
7340;SDS011;6870;50.944;6.932;2023-03-31T07:41:18;2.70;;;1.60;;
7340;SDS011;6870;50.944;6.932;2023-03-31T07:43:48;3.80;;;1.93;;
7340;SDS011;6870;50.944;6.932;2023-03-31T07:46:19;3.07;;;1.80;;
7340;SDS011;6870;50.944;6.932;2023-03-31T07:48:49;4.20;;;1.93;;
7340;SDS011;6870;50.944;6.932;2023-03-31T07:51:18;3.33;;;2.10;;
7340;SDS011;6870;50.944;6.932;2023-03-31T07:53:49;7.43;;;1.60;;
7340;SDS011;6870;50.944;6.932;2023-03-31T07:56:18;5.30;;;1.50;;
7340;SDS011;6870;50.944;6.932;2023-03-31T07:58:48;4.00;;;1.67;;
7340;SDS011;6870;50.944;6.932;2023-03-31T08:01:22;3.20;;;1.90;;
7340;SDS011;6870;50.944;6.932;2023-03-31T08:03:51;3.47;;;1.50;;
7340;SDS011;6870;50.944;6.932;2023-03-31T08:06:21;4.73;;;1.77;;
7340;SDS011;6870;50.944;6.932;2023-03-31T08:08:51;4.10;;;2.10;;
7340;SDS011;6870;50.944;6.932;2023-03-31T08:11:19;3.67;;;1.73;;
7340;SDS011;6870;50.944;6.932;2023-03-31T08:13:47;3.77;;;1.90;;
7340;SDS011;6870;50.944;6.932;2023-03-31T08:16:16;3.53;;;1.87;;
7340;SDS011;6870;50.944;6.932;2023-03-31T08:18:46;2.87;;;1.70;;
7340;SDS011;6870;50.944;6.932;2023-03-31T08:21:14;2.13;;;1.50;;
7340;SDS011;6870;50.944;6.932;2023-03-31T08:23:42;4.30;;;2.23;;
7340;SDS011;6870;50.944;6.932;2023-03-31T08:26:10;2.40;;;1.60;;
7340;SDS011;6870;50.944;6.932;2023-03-31T08:28:43;3.90;;;1.80;;
7340;SDS011;6870;50.944;6.932;2023-03-31T08:31:11;5.10;;;2.20;;
7340;SDS011;6870;50.944;6.932;2023-03-31T08:33:41;3.30;;;2.50;;
7340;SDS011;6870;50.944;6.932;2023-03-31T08:36:11;2.90;;;2.60;;
7340;SDS011;6870;50.944;6.932;2023-03-31T08:38:39;6.10;;;3.17;;
7340;SDS011;6870;50.944;6.932;2023-03-31T08:41:17;5.37;;;2.60;;
7340;SDS011;6870;50.944;6.932;2023-03-31T08:44:05;4.30;;;2.33;;
7340;SDS011;6870;50.944;6.932;2023-03-31T08:46:39;6.93;;;2.90;;
7340;SDS011;6870;50.944;6.932;2023-03-31T08:49:10;4.17;;;2.60;;
7340;SDS011;6870;50.944;6.932;2023-03-31T08:51:45;4.30;;;2.23;;
7340;SDS011;6870;50.944;6.932;2023-03-31T08:54:16;3.07;;;1.80;;
7340;SDS011;6870;50.944;6.932;2023-03-31T08:56:51;5.80;;;2.20;;
7340;SDS011;6870;50.944;6.932;2023-03-31T08:59:21;11.40;;;2.37;;
7340;SDS011;6870;50.944;6.932;2023-03-31T09:01:55;3.57;;;2.40;;
7340;SDS011;6870;50.944;6.932;2023-03-31T09:04:41;5.03;;;2.70;;
7340;SDS011;6870;50.944;6.932;2023-03-31T09:07:29;8.73;;;4.07;;
7340;SDS011;6870;50.944;6.932;2023-03-31T09:10:12;7.20;;;4.90;;
7340;SDS011;6870;50.944;6.932;2023-03-31T09:12:54;4.60;;;4.20;;
7340;SDS011;6870;50.944;6.932;2023-03-31T09:15:30;6.70;;;4.83;;
7340;SDS011;6870;50.944;6.932;2023-03-31T09:18:10;5.63;;;4.17;;
7340;SDS011;6870;50.944;6.932;2023-03-31T09:20:45;5.00;;;3.70;;
7340;SDS011;6870;50.944;6.932;2023-03-31T09:23:21;6.10;;;3.20;;
7340;SDS011;6870;50.944;6.932;2023-03-31T09:25:53;4.97;;;3.20;;
7340;SDS011;6870;50.944;6.932;2023-03-31T09:28:25;4.93;;;2.83;;
7340;SDS011;6870;50.944;6.932;2023-03-31T09:30:57;6.40;;;3.60;;
7340;SDS011;6870;50.944;6.932;2023-03-31T09:33:26;4.80;;;2.80;;
7340;SDS011;6870;50.944;6.932;2023-03-31T09:35:57;8.20;;;3.73;;
7340;SDS011;6870;50.944;6.932;2023-03-31T09:38:27;4.30;;;3.27;;
7340;SDS011;6870;50.944;6.932;2023-03-31T09:40:56;3.87;;;3.30;;
7340;SDS011;6870;50.944;6.932;2023-03-31T09:43:26;3.70;;;2.73;;
7340;SDS011;6870;50.944;6.932;2023-03-31T09:45:56;5.43;;;3.13;;
7340;SDS011;6870;50.944;6.932;2023-03-31T09:48:35;5.10;;;3.80;;
7340;SDS011;6870;50.944;6.932;2023-03-31T09:51:06;6.37;;;4.03;;
7340;SDS011;6870;50.944;6.932;2023-03-31T09:53:44;4.27;;;3.87;;
7340;SDS011;6870;50.944;6.932;2023-03-31T09:56:30;3.93;;;3.17;;
7340;SDS011;6870;50.944;6.932;2023-03-31T09:59:12;4.50;;;2.70;;
7340;SDS011;6870;50.944;6.932;2023-03-31T10:01:44;3.60;;;2.33;;
7340;SDS011;6870;50.944;6.932;2023-03-31T10:04:16;7.10;;;2.60;;
7340;SDS011;6870;50.944;6.932;2023-03-31T10:06:49;4.30;;;2.23;;
7340;SDS011;6870;50.944;6.932;2023-03-31T10:09:20;4.80;;;2.40;;
7340;SDS011;6870;50.944;6.932;2023-03-31T10:11:56;5.77;;;2.70;;
7340;SDS011;6870;50.944;6.932;2023-03-31T10:14:34;3.53;;;2.00;;
7340;SDS011;6870;50.944;6.932;2023-03-31T10:17:12;4.90;;;2.30;;
7340;SDS011;6870;50.944;6.932;2023-03-31T10:19:46;6.10;;;2.40;;
7340;SDS011;6870;50.944;6.932;2023-03-31T10:22:25;6.40;;;2.87;;
7340;SDS011;6870;50.944;6.932;2023-03-31T10:25:03;13.35;;;3.47;;
7340;SDS011;6870;50.944;6.932;2023-03-31T10:27:38;10.57;;;3.63;;
7340;SDS011;6870;50.944;6.932;2023-03-31T10:30:08;13.57;;;4.03;;
7340;SDS011;6870;50.944;6.932;2023-03-31T10:32:43;14.93;;;4.60;;
7340;SDS011;6870;50.944;6.932;2023-03-31T10:35:21;17.80;;;4.23;;
7340;SDS011;6870;50.944;6.932;2023-03-31T10:37:53;9.03;;;3.23;;
7340;SDS011;6870;50.944;6.932;2023-03-31T10:40:26;12.37;;;4.20;;
7340;SDS011;6870;50.944;6.932;2023-03-31T10:42:58;16.17;;;3.87;;
7340;SDS011;6870;50.944;6.932;2023-03-31T10:45:35;7.83;;;3.53;;
7340;SDS011;6870;50.944;6.932;2023-03-31T10:48:05;9.50;;;3.30;;
7340;SDS011;6870;50.944;6.932;2023-03-31T10:50:46;10.20;;;3.50;;
7340;SDS011;6870;50.944;6.932;2023-03-31T10:53:15;11.23;;;3.50;;
7340;SDS011;6870;50.944;6.932;2023-03-31T10:55:48;8.63;;;2.77;;
7340;SDS011;6870;50.944;6.932;2023-03-31T10:58:40;9.13;;;2.80;;
7340;SDS011;6870;50.944;6.932;2023-03-31T11:01:34;8.30;;;3.30;;
7340;SDS011;6870;50.944;6.932;2023-03-31T11:04:23;6.10;;;2.20;;
7340;SDS011;6870;50.944;6.932;2023-03-31T11:07:11;8.17;;;2.90;;
7340;SDS011;6870;50.944;6.932;2023-03-31T11:10:00;6.40;;;2.40;;
7340;SDS011;6870;50.944;6.932;2023-03-31T11:12:45;8.00;;;3.53;;
7340;SDS011;6870;50.944;6.932;2023-03-31T11:15:20;7.00;;;2.83;;
7340;SDS011;6870;50.944;6.932;2023-03-31T11:17:57;6.87;;;2.83;;
7340;SDS011;6870;50.944;6.932;2023-03-31T11:20:40;7.63;;;2.70;;
7340;SDS011;6870;50.944;6.932;2023-03-31T11:23:24;10.17;;;2.67;;
7340;SDS011;6870;50.944;6.932;2023-03-31T11:26:08;8.73;;;2.97;;
7340;SDS011;6870;50.944;6.932;2023-03-31T11:31:35;8.50;;;2.20;;
7340;SDS011;6870;50.944;6.932;2023-03-31T11:34:18;8.00;;;2.10;;
7340;SDS011;6870;50.944;6.932;2023-03-31T11:37:18;3.67;;;1.90;;
7340;SDS011;6870;50.944;6.932;2023-03-31T11:40:14;4.73;;;2.13;;
7340;SDS011;6870;50.944;6.932;2023-03-31T11:42:58;4.70;;;1.80;;
7340;SDS011;6870;50.944;6.932;2023-03-31T11:45:34;5.30;;;2.13;;
7340;SDS011;6870;50.944;6.932;2023-03-31T11:48:09;7.77;;;1.90;;
7340;SDS011;6870;50.944;6.932;2023-03-31T11:50:44;8.30;;;2.33;;
7340;SDS011;6870;50.944;6.932;2023-03-31T11:53:15;4.87;;;2.10;;
7340;SDS011;6870;50.944;6.932;2023-03-31T11:55:47;4.30;;;1.83;;
7340;SDS011;6870;50.944;6.932;2023-03-31T11:58:19;6.90;;;1.90;;
7340;SDS011;6870;50.944;6.932;2023-03-31T12:00:55;7.03;;;3.07;;
7340;SDS011;6870;50.944;6.932;2023-03-31T12:03:32;5.47;;;2.70;;
7340;SDS011;6870;50.944;6.932;2023-03-31T12:06:10;4.90;;;2.00;;
7340;SDS011;6870;50.944;6.932;2023-03-31T12:08:46;4.27;;;2.40;;
7340;SDS011;6870;50.944;6.932;2023-03-31T12:11:30;6.37;;;1.90;;
7340;SDS011;6870;50.944;6.932;2023-03-31T12:14:08;3.20;;;2.00;;
7340;SDS011;6870;50.944;6.932;2023-03-31T12:16:50;5.90;;;2.57;;
7340;SDS011;6870;50.944;6.932;2023-03-31T12:19:21;5.13;;;1.87;;
7340;SDS011;6870;50.944;6.932;2023-03-31T12:21:55;11.23;;;2.07;;
7340;SDS011;6870;50.944;6.932;2023-03-31T12:24:30;5.53;;;2.30;;
7340;SDS011;6870;50.944;6.932;2023-03-31T12:27:02;5.40;;;2.43;;
7340;SDS011;6870;50.944;6.932;2023-03-31T12:29:38;5.37;;;2.43;;
7340;SDS011;6870;50.944;6.932;2023-03-31T12:32:12;3.97;;;1.87;;
7340;SDS011;6870;50.944;6.932;2023-03-31T12:34:45;7.47;;;2.00;;
7340;SDS011;6870;50.944;6.932;2023-03-31T12:40:40;5.07;;;2.60;;
7340;SDS011;6870;50.944;6.932;2023-03-31T12:43:24;5.33;;;1.50;;
7340;SDS011;6870;50.944;6.932;2023-03-31T12:46:15;4.00;;;1.83;;
7340;SDS011;6870;50.944;6.932;2023-03-31T12:49:04;4.20;;;2.17;;
7340;SDS011;6870;50.944;6.932;2023-03-31T12:51:47;3.70;;;1.57;;
7340;SDS011;6870;50.944;6.932;2023-03-31T12:54:30;6.07;;;2.03;;
7340;SDS011;6870;50.944;6.932;2023-03-31T12:57:19;3.63;;;1.73;;
7340;SDS011;6870;50.944;6.932;2023-03-31T13:06:10;3.43;;;2.00;;
7340;SDS011;6870;50.944;6.932;2023-03-31T13:09:38;4.30;;;2.87;;
7340;SDS011;6870;50.944;6.932;2023-03-31T13:12:18;5.40;;;2.70;;
7340;SDS011;6870;50.944;6.932;2023-03-31T13:14:49;3.80;;;1.50;;
7340;SDS011;6870;50.944;6.932;2023-03-31T13:17:22;4.80;;;2.00;;
7340;SDS011;6870;50.944;6.932;2023-03-31T13:19:53;7.28;;;2.53;;
7340;SDS011;6870;50.944;6.932;2023-03-31T13:22:30;4.47;;;1.70;;
7340;SDS011;6870;50.944;6.932;2023-03-31T13:28:28;3.80;;;2.40;;
7340;SDS011;6870;50.944;6.932;2023-03-31T13:31:08;3.70;;;1.63;;
7340;SDS011;6870;50.944;6.932;2023-03-31T13:33:44;6.57;;;1.60;;
7340;SDS011;6870;50.944;6.932;2023-03-31T13:36:29;4.03;;;1.07;;
7340;SDS011;6870;50.944;6.932;2023-03-31T13:39:25;3.87;;;1.63;;
7340;SDS011;6870;50.944;6.932;2023-03-31T13:42:30;3.20;;;1.33;;
7340;SDS011;6870;50.944;6.932;2023-03-31T13:45:37;4.40;;;1.60;;
7340;SDS011;6870;50.944;6.932;2023-03-31T13:48:23;4.33;;;1.60;;
7340;SDS011;6870;50.944;6.932;2023-03-31T13:51:18;2.97;;;1.70;;
7340;SDS011;6870;50.944;6.932;2023-03-31T13:57:11;4.70;;;1.87;;
7340;SDS011;6870;50.944;6.932;2023-03-31T14:03:05;4.73;;;1.97;;
7340;SDS011;6870;50.944;6.932;2023-03-31T14:06:04;2.60;;;1.40;;
7340;SDS011;6870;50.944;6.932;2023-03-31T14:08:44;4.67;;;1.67;;
7340;SDS011;6870;50.944;6.932;2023-03-31T14:11:19;4.73;;;1.30;;
7340;SDS011;6870;50.944;6.932;2023-03-31T14:14:02;3.10;;;2.00;;
7340;SDS011;6870;50.944;6.932;2023-03-31T14:16:34;3.73;;;1.50;;
7340;SDS011;6870;50.944;6.932;2023-03-31T14:22:18;2.63;;;1.30;;
7340;SDS011;6870;50.944;6.932;2023-03-31T14:25:01;4.03;;;1.57;;
7340;SDS011;6870;50.944;6.932;2023-03-31T14:27:44;2.70;;;1.40;;
7340;SDS011;6870;50.944;6.932;2023-03-31T14:30:29;2.60;;;1.30;;
7340;SDS011;6870;50.944;6.932;2023-03-31T14:33:23;3.50;;;1.50;;
7340;SDS011;6870;50.944;6.932;2023-03-31T14:36:01;1.90;;;1.10;;
7340;SDS011;6870;50.944;6.932;2023-03-31T14:38:41;9.13;;;1.40;;
7340;SDS011;6870;50.944;6.932;2023-03-31T14:41:14;3.57;;;1.63;;
7340;SDS011;6870;50.944;6.932;2023-03-31T14:43:46;3.57;;;1.93;;
7340;SDS011;6870;50.944;6.932;2023-03-31T14:46:21;3.63;;;1.57;;
7340;SDS011;6870;50.944;6.932;2023-03-31T14:48:49;3.97;;;1.83;;
7340;SDS011;6870;50.944;6.932;2023-03-31T14:51:28;2.27;;;1.30;;
7340;SDS011;6870;50.944;6.932;2023-03-31T14:53:57;3.30;;;1.57;;
7340;SDS011;6870;50.944;6.932;2023-03-31T14:56:28;3.03;;;1.70;;
7340;SDS011;6870;50.944;6.932;2023-03-31T14:59:01;4.03;;;1.73;;
7340;SDS011;6870;50.944;6.932;2023-03-31T15:01:33;5.20;;;2.50;;
7340;SDS011;6870;50.944;6.932;2023-03-31T15:04:04;3.57;;;1.83;;
7340;SDS011;6870;50.944;6.932;2023-03-31T15:06:35;3.90;;;2.03;;
7340;SDS011;6870;50.944;6.932;2023-03-31T15:09:05;7.33;;;2.17;;
7340;SDS011;6870;50.944;6.932;2023-03-31T15:11:35;4.07;;;1.50;;
7340;SDS011;6870;50.944;6.932;2023-03-31T15:14:04;3.03;;;1.47;;
7340;SDS011;6870;50.944;6.932;2023-03-31T15:16:37;2.90;;;1.90;;
7340;SDS011;6870;50.944;6.932;2023-03-31T15:19:13;2.73;;;1.50;;
7340;SDS011;6870;50.944;6.932;2023-03-31T15:21:44;3.07;;;1.57;;
7340;SDS011;6870;50.944;6.932;2023-03-31T15:24:13;3.90;;;1.80;;
7340;SDS011;6870;50.944;6.932;2023-03-31T15:26:42;5.03;;;1.83;;
7340;SDS011;6870;50.944;6.932;2023-03-31T15:29:18;3.20;;;2.10;;
7340;SDS011;6870;50.944;6.932;2023-03-31T15:31:50;4.67;;;1.97;;
7340;SDS011;6870;50.944;6.932;2023-03-31T15:34:24;3.70;;;1.90;;
7340;SDS011;6870;50.944;6.932;2023-03-31T15:36:58;1.97;;;1.10;;
7340;SDS011;6870;50.944;6.932;2023-03-31T15:39:28;2.87;;;1.60;;
7340;SDS011;6870;50.944;6.932;2023-03-31T15:41:59;3.43;;;1.57;;
7340;SDS011;6870;50.944;6.932;2023-03-31T15:44:34;3.30;;;1.83;;
7340;SDS011;6870;50.944;6.932;2023-03-31T15:47:07;2.23;;;1.23;;
7340;SDS011;6870;50.944;6.932;2023-03-31T15:49:46;3.30;;;1.30;;
7340;SDS011;6870;50.944;6.932;2023-03-31T15:52:25;2.30;;;1.30;;
7340;SDS011;6870;50.944;6.932;2023-03-31T15:54:58;4.50;;;1.67;;
7340;SDS011;6870;50.944;6.932;2023-03-31T15:57:32;3.30;;;1.40;;
7340;SDS011;6870;50.944;6.932;2023-03-31T16:00:02;4.33;;;1.83;;
7340;SDS011;6870;50.944;6.932;2023-03-31T16:02:38;4.00;;;2.10;;
7340;SDS011;6870;50.944;6.932;2023-03-31T16:05:22;5.93;;;2.40;;
7340;SDS011;6870;50.944;6.932;2023-03-31T16:08:17;4.07;;;2.03;;
7340;SDS011;6870;50.944;6.932;2023-03-31T16:10:55;7.67;;;3.00;;
7340;SDS011;6870;50.944;6.932;2023-03-31T16:13:26;8.73;;;2.83;;
7340;SDS011;6870;50.944;6.932;2023-03-31T16:15:56;4.80;;;2.40;;
7340;SDS011;6870;50.944;6.932;2023-03-31T16:18:29;5.10;;;2.50;;
7340;SDS011;6870;50.944;6.932;2023-03-31T16:21:01;4.33;;;1.90;;
7340;SDS011;6870;50.944;6.932;2023-03-31T16:23:32;5.30;;;2.50;;
7340;SDS011;6870;50.944;6.932;2023-03-31T16:26:06;3.90;;;2.20;;
7340;SDS011;6870;50.944;6.932;2023-03-31T16:28:35;4.80;;;2.73;;
7340;SDS011;6870;50.944;6.932;2023-03-31T16:31:04;5.67;;;2.57;;
7340;SDS011;6870;50.944;6.932;2023-03-31T16:34:00;5.10;;;3.13;;
7340;SDS011;6870;50.944;6.932;2023-03-31T16:36:29;5.77;;;2.70;;